Time;durP1;ratioP1;P1;durP2;ratioP2;P2;SDS_P1;SDS_P2;PMS_P1;PMS_P2;Temp;Humidity;BMP_temperature;BMP_pressure;BME280_temperature;BME280_humidity;BME280_pressure;Samples;Min_cycle;Max_cycle;Signal;HPM_P1;HPM_P2
2024/01/31 00:01:00;;;;;;;;;14.00;12.00;;;;;1.67;79.28;101724.70;112462;244;40994;-57
2024/01/31 00:03:52;;;;;;;;;15.25;12.00;;;;;1.69;79.34;101726.88;112482;244;40033;-57
2024/01/31 00:06:32;;;;;;;;;18.00;13.00;;;;;1.71;79.40;101723.17;112489;244;39224;-57
2024/01/31 00:09:07;;;;;;;;;15.25;11.00;;;;;1.74;79.42;101722.95;112450;244;39974;-55
2024/01/31 00:11:54;;;;;;;;;16.00;11.67;;;;;1.79;79.35;101722.14;112255;242;161903;-56
2024/01/31 00:14:30;;;;;;;;;17.00;12.50;;;;;1.82;79.47;101723.17;112415;244;40085;-57
2024/01/31 00:17:09;;;;;;;;;17.00;11.75;;;;;1.88;79.39;101723.16;112425;244;40696;-57
2024/01/31 00:19:48;;;;;;;;;14.67;10.00;;;;;1.90;79.29;101720.38;112442;244;39953;-57
2024/01/31 00:22:27;;;;;;;;;16.25;12.00;;;;;1.92;79.32;101722.69;112377;244;39856;-57
2024/01/31 00:25:08;;;;;;;;;12.00;9.33;;;;;1.94;79.27;101723.82;112424;244;40470;-56
2024/01/31 00:27:49;;;;;;;;;18.33;13.00;;;;;1.90;79.11;101719.79;112431;244;39699;-56
2024/01/31 00:30:31;;;;;;;;;21.00;14.00;;;;;1.86;79.15;101719.53;112334;242;160990;-54
2024/01/31 00:33:15;;;;;;;;;16.25;12.00;;;;;1.81;79.20;101718.98;112462;244;41057;-54
2024/01/31 00:35:59;;;;;;;;;14.00;10.00;;;;;1.76;79.27;101723.17;112313;242;161121;-57
2024/01/31 00:38:38;;;;;;;;;13.00;10.00;;;;;1.75;79.10;101724.86;112481;244;39307;-57
2024/01/31 00:41:16;;;;;;;;;12.25;10.00;;;;;1.72;79.28;101718.10;112541;244;39630;-54
2024/01/31 00:43:58;;;;;;;;;11.25;9.00;;;;;1.69;79.33;101718.90;112447;242;160765;-53
2024/01/31 00:46:44;;;;;;;;;10.00;7.00;;;;;1.64;79.35;101714.05;112486;244;39684;-51
2024/01/31 00:49:25;;;;;;;;;16.00;12.00;;;;;1.59;79.38;101707.81;112467;242;161810;-55
2024/01/31 00:52:04;;;;;;;;;11.00;9.00;;;;;1.55;79.53;101703.80;112453;244;39173;-55
2024/01/31 00:54:45;;;;;;;;;11.25;10.00;;;;;1.54;79.57;101696.12;112382;242;161468;-51
2024/01/31 00:57:23;;;;;;;;;17.75;12.00;;;;;1.56;79.64;101698.27;112439;244;40962;-52
2024/01/31 01:00:05;;;;;;;;;13.00;9.00;;;;;1.58;79.66;101695.85;112279;242;161617;-55
2024/01/31 01:02:45;;;;;;;;;11.75;9.25;;;;;1.61;79.82;101690.80;112371;244;41216;-55
2024/01/31 01:05:28;;;;;;;;;12.00;9.75;;;;;1.65;79.89;101695.68;112431;244;39165;-56
2024/01/31 01:08:08;;;;;;;;;14.00;11.00;;;;;1.66;79.90;101696.52;112365;245;39889;-57
2024/01/31 01:10:52;;;;;;;;;19.00;13.00;;;;;1.67;79.83;101689.92;112422;245;39349;-55
2024/01/31 01:13:32;;;;;;;;;15.00;11.00;;;;;1.64;80.00;101686.94;112327;243;160952;-55
2024/01/31 01:16:09;;;;;;;;;13.50;10.50;;;;;1.62;80.04;101689.38;112437;244;39928;-53
2024/01/31 01:18:49;;;;;;;;;13.25;10.00;;;;;1.60;80.02;101683.25;112314;242;160864;-52
2024/01/31 01:21:29;;;;;;;;;14.00;11.00;;;;;1.58;80.05;101682.70;112487;244;39044;-52
2024/01/31 01:24:10;;;;;;;;;10.00;7.50;;;;;1.55;80.10;101684.83;112330;242;161655;-55
2024/01/31 01:26:47;;;;;;;;;10.00;8.00;;;;;1.52;80.05;101681.65;112428;244;39863;-56
2024/01/31 01:29:25;;;;;;;;;17.75;11.75;;;;;1.50;80.20;101680.05;112480;244;40947;-57
2024/01/31 01:32:07;;;;;;;;;12.00;9.25;;;;;1.47;80.31;101677.39;112393;244;41304;-57
2024/01/31 01:34:52;;;;;;;;;15.00;10.33;;;;;1.45;80.36;101680.89;112347;245;41272;-54
2024/01/31 01:37:35;;;;;;;;;13.50;11.00;;;;;1.41;80.29;101676.33;112280;243;162886;-54
2024/01/31 01:40:15;;;;;;;;;12.00;9.00;;;;;1.39;80.38;101676.13;112486;245;39375;-52
2024/01/31 01:42:51;;;;;;;;;16.00;12.00;;;;;1.33;80.56;101676.49;112363;244;161864;-52
2024/01/31 01:45:34;;;;;;;;;9.00;7.00;;;;;1.30;80.66;101673.38;112421;245;39852;-51
2024/01/31 01:48:15;;;;;;;;;8.00;6.00;;;;;1.28;80.67;101671.02;112263;244;160967;-52
2024/01/31 01:50:57;;;;;;;;;10.00;8.00;;;;;1.27;80.78;101668.08;112377;246;40837;-54
2024/01/31 01:53:38;;;;;;;;;17.75;12.75;;;;;1.27;80.82;101665.23;112398;246;39793;-56
2024/01/31 01:56:19;;;;;;;;;15.00;11.00;;;;;1.26;80.96;101667.77;112141;246;40229;-57
2024/01/31 01:58:58;;;;;;;;;17.00;11.00;;;;;1.32;80.97;101662.97;112401;245;39590;-57
2024/01/31 02:01:37;;;;;;;;;18.00;14.00;;;;;1.36;81.13;101662.89;112084;244;161774;-52
2024/01/31 02:04:18;;;;;;;;;14.50;12.00;;;;;1.42;81.08;101665.48;112441;245;39653;-52
2024/01/31 02:07:01;;;;;;;;;13.75;11.00;;;;;1.47;81.20;101663.73;112290;245;161211;-53
2024/01/31 02:09:38;;;;;;;;;13.00;10.00;;;;;1.54;81.08;101662.38;112477;245;39765;-55
2024/01/31 02:12:18;;;;;;;;;14.00;11.00;;;;;1.56;81.24;101664.21;112388;243;162325;-55
2024/01/31 02:14:59;;;;;;;;;13.25;10.00;;;;;1.53;81.21;101662.45;112510;245;38950;-52
2024/01/31 02:17:42;;;;;;;;;17.00;11.00;;;;;1.52;81.27;101662.83;112343;245;39903;-52
2024/01/31 02:20:23;;;;;;;;;21.00;13.00;;;;;1.51;81.25;101662.95;112286;245;39944;-52
2024/01/31 02:23:06;;;;;;;;;13.00;9.00;;;;;1.48;81.24;101670.38;112440;246;40872;-52
2024/01/31 02:25:42;;;;;;;;;15.00;11.00;;;;;1.45;81.39;101664.95;112278;243;160801;-56
2024/01/31 02:28:23;;;;;;;;;14.00;10.00;;;;;1.41;81.44;101667.81;112434;245;39535;-56
2024/01/31 02:31:06;;;;;;;;;13.00;10.00;;;;;1.41;81.53;101666.24;112359;244;161204;-55
2024/01/31 02:33:41;;;;;;;;;12.00;10.00;;;;;1.40;81.49;101662.41;112457;245;39505;-55
2024/01/31 02:36:24;;;;;;;;;13.00;10.00;;;;;1.35;81.49;101665.59;112321;243;161227;-55
2024/01/31 02:39:03;;;;;;;;;9.00;6.50;;;;;1.33;81.70;101666.09;112454;245;39551;-54
2024/01/31 02:41:42;;;;;;;;;11.50;7.50;;;;;1.32;81.84;101664.88;112405;246;43210;-53
2024/01/31 02:44:20;;;;;;;;;13.33;11.00;;;;;1.34;81.79;101664.93;112441;246;39949;-55
2024/01/31 02:46:58;;;;;;;;;13.00;10.50;;;;;1.33;81.83;101667.99;112449;245;40646;-55
2024/01/31 02:49:50;;;;;;;;;14.75;11.50;;;;;1.34;81.97;101663.19;112310;243;162351;-52
2024/01/31 02:52:33;;;;;;;;;19.00;12.67;;;;;1.34;82.01;101662.77;112507;245;39732;-52
2024/01/31 02:55:09;;;;;;;;;17.50;13.50;;;;;1.43;82.20;101657.77;112358;243;161775;-52
2024/01/31 02:57:49;;;;;;;;;17.00;12.00;;;;;1.50;82.07;101653.75;112177;245;39268;-52
2024/01/31 03:00:29;;;;;;;;;19.00;15.00;;;;;1.48;82.17;101649.95;112490;246;39430;-56
2024/01/31 03:03:07;;;;;;;;;19.00;13.25;;;;;1.48;82.18;101650.34;112474;245;40257;-56
2024/01/31 03:05:45;;;;;;;;;15.00;11.00;;;;;1.47;82.32;101653.25;112559;245;40591;-52
2024/01/31 03:08:26;;;;;;;;;14.00;11.00;;;;;1.46;82.28;101651.35;112439;244;40323;-53
2024/01/31 03:11:08;;;;;;;;;13.50;10.00;;;;;1.46;82.44;101647.45;112519;244;39964;-55
2024/01/31 03:13:46;;;;;;;;;12.33;10.00;;;;;1.45;82.41;101648.91;112332;243;161190;-56
2024/01/31 03:16:26;;;;;;;;;14.00;11.00;;;;;1.42;82.49;101650.92;112480;245;39593;-55
2024/01/31 03:19:10;;;;;;;;;17.00;13.00;;;;;1.40;82.52;101644.50;112296;244;162872;-53
2024/01/31 03:21:49;;;;;;;;;6.00;5.00;;;;;1.40;82.69;101647.85;112431;245;40370;-52
2024/01/31 03:24:30;;;;;;;;;14.00;11.00;;;;;1.39;82.68;101642.03;112335;243;161162;-55
2024/01/31 03:27:11;;;;;;;;;13.00;9.00;;;;;1.40;82.70;101643.20;112452;244;40083;-57
2024/01/31 03:29:51;;;;;;;;;15.00;12.00;;;;;1.45;82.96;101640.42;112466;244;39615;-51
2024/01/31 03:32:32;;;;;;;;;17.33;13.33;;;;;1.54;83.01;101645.33;112436;244;41131;-51
2024/01/31 03:35:10;;;;;;;;;20.00;14.00;;;;;1.60;83.01;101646.48;112433;244;39284;-52
2024/01/31 03:37:50;;;;;;;;;14.67;12.00;;;;;1.62;83.00;101642.61;112393;243;160969;-52
2024/01/31 03:40:36;;;;;;;;;16.33;10.67;;;;;1.66;83.03;101644.13;112454;244;39673;-53
2024/01/31 03:43:18;;;;;;;;;19.00;14.00;;;;;1.72;83.05;101649.09;112370;243;160985;-52
2024/01/31 03:46:01;;;;;;;;;18.00;13.50;;;;;1.72;83.10;101646.23;112505;244;39677;-56
2024/01/31 03:48:41;;;;;;;;;13.50;10.00;;;;;1.76;83.18;101644.19;112385;243;162390;-55
2024/01/31 03:51:28;;;;;;;;;16.00;11.00;;;;;1.77;83.11;101641.10;112538;244;39664;-56
2024/01/31 03:54:10;;;;;;;;;15.00;11.00;;;;;1.77;83.13;101637.33;112450;243;162230;-52
2024/01/31 03:56:50;;;;;;;;;18.00;13.00;;;;;1.77;83.13;101641.11;112473;244;40873;-52
2024/01/31 03:59:30;;;;;;;;;17.00;13.00;;;;;1.74;83.13;101642.52;112508;244;39641;-53
2024/01/31 04:02:14;;;;;;;;;10.00;8.00;;;;;1.73;83.22;101639.23;112331;242;161148;-52
2024/01/31 04:04:50;;;;;;;;;13.00;10.50;;;;;1.76;83.25;101639.89;112512;244;40507;-53
2024/01/31 04:07:28;;;;;;;;;14.00;11.00;;;;;1.77;83.36;101637.70;112360;243;161433;-53
2024/01/31 04:10:06;;;;;;;;;17.00;13.00;;;;;1.83;83.40;101636.08;112475;244;39401;-56
2024/01/31 04:12:42;;;;;;;;;26.25;16.75;;;;;1.89;83.35;101638.54;112335;243;161959;-57
2024/01/31 04:15:20;;;;;;;;;18.50;14.00;;;;;1.94;83.45;101643.52;112466;244;40850;-52
2024/01/31 04:18:03;;;;;;;;;17.00;13.00;;;;;2.03;83.51;101645.20;112448;244;40186;-52
2024/01/31 04:20:53;;;;;;;;;18.67;13.00;;;;;2.09;83.41;101646.71;112451;245;40650;-56
2024/01/31 04:23:29;;;;;;;;;19.00;14.00;;;;;2.10;83.40;101643.64;112441;245;40171;-56
2024/01/31 04:26:03;;;;;;;;;22.00;15.00;;;;;2.09;83.37;101646.40;112427;243;161113;-56
2024/01/31 04:28:41;;;;;;;;;14.00;11.00;;;;;2.08;83.47;101648.59;112472;244;40349;-57
2024/01/31 04:31:27;;;;;;;;;19.00;13.00;;;;;2.09;83.49;101645.47;112456;244;160951;-53
2024/01/31 04:34:09;;;;;;;;;21.00;15.00;;;;;2.09;83.61;101641.73;112493;244;39837;-54
2024/01/31 04:36:45;;;;;;;;;16.00;11.00;;;;;2.09;83.76;101643.19;112448;243;162334;-53
2024/01/31 04:39:25;;;;;;;;;15.00;10.75;;;;;2.14;83.78;101647.30;112571;244;39837;-56
2024/01/31 04:42:06;;;;;;;;;13.67;10.67;;;;;2.19;83.73;101651.91;112413;244;161769;-57
2024/01/31 04:44:51;;;;;;;;;22.75;16.25;;;;;2.27;83.86;101655.25;112596;244;40640;-56
2024/01/31 04:47:27;;;;;;;;;20.33;15.33;;;;;2.37;83.75;101657.73;112478;244;39693;-57
2024/01/31 04:50:09;;;;;;;;;17.75;13.50;;;;;2.48;83.76;101658.05;112335;243;161588;-56
2024/01/31 04:52:50;;;;;;;;;16.00;13.00;;;;;2.60;83.81;101651.15;112445;244;40648;-57
2024/01/31 04:55:33;;;;;;;;;18.25;14.75;;;;;2.69;83.71;101655.28;112309;244;160923;-55
2024/01/31 04:58:18;;;;;;;;;15.00;12.00;;;;;2.75;83.77;101652.20;112423;244;39623;-55
2024/01/31 05:01:05;;;;;;;;;18.00;14.00;;;;;2.79;83.61;101657.05;112316;243;160959;-56
2024/01/31 05:03:44;;;;;;;;;16.50;12.25;;;;;2.80;83.49;101660.00;112437;244;39714;-55
2024/01/31 05:06:28;;;;;;;;;22.00;15.00;;;;;2.78;83.41;101659.44;111938;244;451418;-53
2024/01/31 05:09:06;;;;;;;;;18.00;14.00;;;;;2.78;83.38;101664.43;112325;246;39688;-55
2024/01/31 05:11:49;;;;;;;;;18.67;13.67;;;;;2.76;83.40;101664.04;112442;245;39735;-56
2024/01/31 05:14:28;;;;;;;;;12.50;10.00;;;;;2.74;83.41;101665.46;112327;243;162615;-56
2024/01/31 05:17:10;;;;;;;;;19.00;14.00;;;;;2.74;83.44;101668.42;112440;245;39614;-57
2024/01/31 05:19:51;;;;;;;;;18.50;14.50;;;;;2.76;83.40;101668.13;112307;245;162063;-54
2024/01/31 05:22:36;;;;;;;;;15.50;12.25;;;;;2.79;83.53;101665.96;112452;244;41956;-56
2024/01/31 05:25:13;;;;;;;;;19.00;14.33;;;;;2.86;83.58;101664.91;112382;244;161879;-52
2024/01/31 05:27:55;;;;;;;;;18.75;15.25;;;;;2.94;83.52;101664.14;112464;246;40027;-52
2024/01/31 05:30:38;;;;;;;;;22.33;15.67;;;;;3.01;83.46;101659.39;112458;243;161492;-52
2024/01/31 05:33:16;;;;;;;;;19.33;15.00;;;;;3.07;83.51;101659.88;112549;244;39838;-52
2024/01/31 05:35:53;;;;;;;;;19.00;14.33;;;;;3.12;83.49;101660.23;112543;244;40112;-55
2024/01/31 05:38:34;;;;;;;;;18.00;14.00;;;;;3.11;83.44;101658.15;112282;244;160780;-55
2024/01/31 05:41:12;;;;;;;;;25.67;19.67;;;;;3.12;83.32;101659.84;112464;245;41093;-52
2024/01/31 05:43:48;;;;;;;;;26.50;20.50;;;;;3.12;83.33;101661.31;112372;243;161287;-52
2024/01/31 05:46:23;;;;;;;;;25.67;17.00;;;;;3.12;83.37;101668.95;112476;244;42236;-53
2024/01/31 05:49:02;;;;;;;;;17.33;13.00;;;;;3.12;83.40;101665.59;112333;243;161262;-53
2024/01/31 05:51:45;;;;;;;;;24.50;17.00;;;;;3.10;83.32;101661.79;112423;245;39640;-53
2024/01/31 05:54:30;;;;;;;;;15.00;12.00;;;;;3.08;83.34;101658.39;112377;244;161352;-56
2024/01/31 05:57:09;;;;;;;;;15.25;12.00;;;;;3.05;83.46;101659.28;112414;245;39319;-57
2024/01/31 05:59:47;;;;;;;;;16.00;13.00;;;;;3.06;83.48;101664.23;112487;245;40971;-55
2024/01/31 06:02:26;;;;;;;;;19.33;14.00;;;;;3.03;83.56;101664.09;112329;243;161381;-55
2024/01/31 06:05:04;;;;;;;;;19.00;14.00;;;;;2.98;83.48;101660.13;112504;244;39493;-52
2024/01/31 06:07:44;;;;;;;;;13.50;10.50;;;;;2.94;83.54;101662.21;112348;243;161905;-52
2024/01/31 06:10:22;;;;;;;;;21.00;16.00;;;;;2.90;83.55;101660.52;112551;244;40527;-54
2024/01/31 06:12:59;;;;;;;;;26.50;18.25;;;;;2.91;83.58;101665.64;112450;243;161465;-54
2024/01/31 06:15:44;;;;;;;;;20.00;15.67;;;;;2.89;83.65;101669.32;112551;244;39054;-56
2024/01/31 06:18:25;;;;;;;;;20.25;15.00;;;;;2.83;83.68;101671.67;112338;243;161050;-56
2024/01/31 06:21:06;;;;;;;;;18.75;13.25;;;;;2.81;83.67;101669.94;112501;244;40746;-51
2024/01/31 06:23:48;;;;;;;;;18.25;13.75;;;;;2.77;83.84;101673.76;112495;244;39768;-51
2024/01/31 06:26:32;;;;;;;;;16.33;11.67;;;;;2.78;84.06;101678.28;112362;243;160823;-52
2024/01/31 06:29:18;;;;;;;;;22.33;18.00;;;;;2.80;84.09;101684.56;112509;244;40740;-54
2024/01/31 06:32:00;;;;;;;;;21.33;15.67;;;;;2.78;84.06;101677.21;112321;244;162408;-54
2024/01/31 06:34:42;;;;;;;;;20.00;16.00;;;;;2.74;84.09;101675.89;112489;244;39384;-52
2024/01/31 06:37:26;;;;;;;;;19.00;13.33;;;;;2.71;84.13;101675.77;112357;244;160959;-52
2024/01/31 06:40:01;;;;;;;;;22.75;15.00;;;;;2.69;84.15;101676.67;112491;244;40054;-56
2024/01/31 06:42:45;;;;;;;;;15.00;11.00;;;;;2.63;84.25;101677.95;112346;243;161116;-56
2024/01/31 06:48:50;;;;;;;;;18.00;12.75;;;;;2.69;84.63;101682.33;110242;268;62341;-53
2024/01/31 06:51:31;;;;;;;;;22.50;17.00;;;;;2.72;84.82;101684.41;111324;256;40324;-52
2024/01/31 06:54:17;;;;;;;;;23.50;18.25;;;;;2.81;84.95;101686.11;112160;249;40240;-54
2024/01/31 06:57:03;;;;;;;;;22.00;16.00;;;;;2.91;85.06;101689.30;112113;249;40782;-55
2024/01/31 06:59:41;;;;;;;;;21.25;17.00;;;;;3.07;85.22;101686.20;112142;249;40967;-55
2024/01/31 07:02:26;;;;;;;;;21.00;16.00;;;;;3.19;85.18;101686.20;111764;245;541382;-55
2024/01/31 07:05:04;;;;;;;;;19.50;15.00;;;;;3.29;85.25;101683.71;112306;247;40318;-55
2024/01/31 07:07:40;;;;;;;;;21.00;16.00;;;;;3.38;85.16;101681.05;112040;245;159829;-55
2024/01/31 07:10:18;;;;;;;;;14.67;11.67;;;;;3.45;85.24;101680.55;112160;248;40901;-52
2024/01/31 07:13:00;;;;;;;;;25.75;18.75;;;;;3.51;85.21;101681.52;112108;246;160912;-52
2024/01/31 07:15:41;;;;;;;;;23.00;17.00;;;;;3.53;85.10;101681.53;112224;246;39622;-56
2024/01/31 07:18:22;;;;;;;;;19.50;15.00;;;;;3.54;85.11;101675.04;112310;242;160046;-56
2024/01/31 07:21:06;;;;;;;;;21.00;15.00;;;;;3.56;85.01;101673.17;112470;244;38939;-56
2024/01/31 07:23:43;;;;;;;;;22.50;16.25;;;;;3.58;85.09;101676.95;112426;244;40374;-56
2024/01/31 07:26:30;;;;;;;;;26.00;19.50;;;;;3.63;85.04;101675.64;112404;241;160807;-53
2024/01/31 07:29:10;;;;;;;;;28.00;20.00;;;;;3.72;85.09;101675.36;112465;244;38989;-53
2024/01/31 07:31:47;;;;;;;;;26.00;19.25;;;;;3.83;85.19;101676.64;112739;239;160265;-51
2024/01/31 07:34:25;;;;;;;;;29.00;21.00;;;;;3.91;85.15;101684.54;112892;242;40126;-53
2024/01/31 07:37:05;;;;;;;;;19.00;16.00;;;;;4.00;85.20;101681.20;112674;239;161707;-53
2024/01/31 07:39:41;;;;;;;;;25.00;19.00;;;;;4.06;85.09;101683.27;112833;242;40107;-56
2024/01/31 07:42:18;;;;;;;;;31.75;21.75;;;;;4.08;85.10;101684.69;112744;239;160396;-56
2024/01/31 07:45:04;;;;;;;;;26.50;17.75;;;;;4.14;85.15;101688.48;112891;242;39906;-52
2024/01/31 07:47:53;;;;;;;;;26.25;19.00;;;;;4.21;85.18;101686.95;112887;242;41350;-52
2024/01/31 07:50:31;;;;;;;;;23.33;18.00;;;;;4.24;85.07;101688.84;112736;239;161100;-56
2024/01/31 07:53:14;;;;;;;;;24.75;19.00;;;;;4.29;84.93;101688.65;112936;242;39802;-56
2024/01/31 07:55:59;;;;;;;;;23.50;18.00;;;;;4.32;84.92;101690.03;112764;239;160033;-56
2024/01/31 07:58:35;;;;;;;;;23.25;17.00;;;;;4.33;84.75;101691.50;112860;242;40175;-55
2024/01/31 08:01:23;;;;;;;;;31.75;21.50;;;;;4.35;84.73;101691.89;112760;239;160652;-55
2024/01/31 08:04:12;;;;;;;;;23.00;18.00;;;;;4.39;84.79;101696.58;112847;243;39759;-55
2024/01/31 08:06:53;;;;;;;;;19.00;14.50;;;;;4.44;84.79;101699.77;112361;243;160683;-52
2024/01/31 08:09:34;;;;;;;;;27.50;19.00;;;;;4.51;84.74;101701.88;113129;243;39416;-51
2024/01/31 08:12:11;;;;;;;;;29.00;22.00;;;;;4.56;84.69;101702.92;113333;243;39595;-53
2024/01/31 08:14:47;;;;;;;;;21.50;15.00;;;;;4.60;84.74;101706.69;112467;243;41297;-53
2024/01/31 08:17:23;;;;;;;;;32.00;24.00;;;;;4.66;84.69;101709.60;112535;244;41230;-53
2024/01/31 08:20:03;;;;;;;;;24.00;18.00;;;;;4.68;84.54;101706.02;112586;240;160295;-57
2024/01/31 08:22:45;;;;;;;;;31.00;23.67;;;;;4.71;84.46;101710.15;112873;243;41498;-57
2024/01/31 08:25:27;;;;;;;;;20.00;16.00;;;;;4.74;84.32;101709.87;112705;239;160737;-53
2024/01/31 08:28:05;;;;;;;;;31.00;23.00;;;;;4.71;84.33;101709.58;112823;243;39637;-53
2024/01/31 08:30:43;;;;;;;;;26.00;20.00;;;;;4.70;84.28;101708.20;112787;240;160163;-56
2024/01/31 08:33:21;;;;;;;;;33.00;23.75;;;;;4.69;84.25;101706.86;112818;242;39337;-56
2024/01/31 08:36:02;;;;;;;;;32.33;22.00;;;;;4.69;84.49;101712.37;112903;242;41273;-57
2024/01/31 08:38:44;;;;;;;;;30.50;23.00;;;;;4.70;84.36;101713.23;112714;239;159879;-57
2024/01/31 08:45:10;;;;;;;;;21.50;17.50;;;;;4.70;84.41;101715.33;112916;241;42826;-52
2024/01/31 08:47:49;;;;;;;;;27.33;20.33;;;;;4.76;84.29;101715.61;112848;242;39196;-57
2024/01/31 08:50:30;;;;;;;;;28.00;20.33;;;;;4.81;84.38;101719.29;112752;240;160764;-55
2024/01/31 08:53:09;;;;;;;;;32.67;21.67;;;;;4.88;84.41;101718.92;112820;242;39422;-55
2024/01/31 08:55:46;;;;;;;;;26.50;20.00;;;;;4.96;84.46;101714.41;112841;239;160795;-57
2024/01/31 08:58:23;;;;;;;;;27.50;21.00;;;;;5.06;84.58;101716.41;112863;242;41157;-56
2024/01/31 09:01:01;;;;;;;;;28.00;21.33;;;;;5.15;84.54;101720.15;112701;239;160306;-56
2024/01/31 09:03:35;;;;;;;;;27.25;21.25;;;;;5.22;84.36;101718.86;112865;242;39575;-56
2024/01/31 09:06:10;;;;;;;;;34.00;26.00;;;;;5.23;84.31;101717.14;112840;242;39867;-54
2024/01/31 09:08:45;;;;;;;;;35.75;26.25;;;;;5.24;84.08;101715.53;112810;239;160021;-53
2024/01/31 09:11:21;;;;;;;;;30.00;21.67;;;;;5.24;84.07;101714.83;112851;242;40526;-53
2024/01/31 09:14:05;;;;;;;;;30.00;21.00;;;;;5.21;83.99;101710.20;112769;239;160031;-53
2024/01/31 09:16:48;;;;;;;;;28.00;21.00;;;;;5.22;84.25;101709.76;112878;242;40827;-56
2024/01/31 09:19:27;;;;;;;;;30.25;21.25;;;;;5.30;84.09;101714.86;112702;239;160183;-55
2024/01/31 09:22:05;;;;;;;;;32.00;24.75;;;;;5.41;84.35;101708.02;112867;242;38987;-57
2024/01/31 09:24:46;;;;;;;;;22.75;19.25;;;;;5.58;84.37;101710.38;112704;239;160217;-57
2024/01/31 09:27:22;;;;;;;;;23.75;19.00;;;;;5.73;84.36;101712.17;112964;242;39351;-55
2024/01/31 09:30:04;;;;;;;;;28.00;20.00;;;;;5.85;84.30;101708.20;112827;242;41201;-56
2024/01/31 09:32:39;;;;;;;;;32.00;22.00;;;;;6.00;84.09;101704.98;112846;239;160624;-53
2024/01/31 09:35:14;;;;;;;;;34.50;23.50;;;;;6.09;83.91;101704.89;112889;242;40015;-54
2024/01/31 09:37:54;;;;;;;;;29.33;23.00;;;;;6.15;83.67;101702.92;112875;239;160409;-54
2024/01/31 09:40:35;;;;;;;;;33.50;24.25;;;;;6.17;83.43;101706.00;112904;242;39375;-52
2024/01/31 09:43:19;;;;;;;;;27.25;20.50;;;;;6.14;83.38;101704.26;112779;239;160227;-52
2024/01/31 09:46:00;;;;;;;;;35.50;27.00;;;;;6.16;83.47;101707.02;112953;242;39232;-53
2024/01/31 09:48:40;;;;;;;;;34.00;23.00;;;;;6.15;83.35;101700.46;112728;239;160558;-56
2024/01/31 09:51:23;;;;;;;;;33.75;25.50;;;;;6.17;83.49;101699.58;112965;242;39403;-57
2024/01/31 09:54:10;;;;;;;;;31.00;24.75;;;;;6.16;83.48;101697.67;112806;242;39910;-57
2024/01/31 09:56:49;;;;;;;;;31.67;23.67;;;;;6.18;83.39;101693.00;112502;242;39949;-56
2024/01/31 09:59:28;;;;;;;;;30.67;20.00;;;;;6.25;83.45;101693.52;112825;242;40783;-55
2024/01/31 10:02:06;;;;;;;;;25.00;19.25;;;;;6.34;83.36;101689.69;112797;239;160532;-53
2024/01/31 10:04:45;;;;;;;;;28.67;21.67;;;;;6.52;83.46;101695.31;112836;242;40896;-53
2024/01/31 10:07:38;;;;;;;;;32.00;24.00;;;;;6.84;83.66;101682.96;112745;239;161473;-53
2024/01/31 10:10:15;;;;;;;;;40.75;30.25;;;;;7.29;83.69;101676.11;112897;242;39895;-53
2024/01/31 10:12:54;;;;;;;;;33.00;26.00;;;;;7.69;83.67;101675.31;112832;239;160577;-53
2024/01/31 10:15:33;;;;;;;;;29.33;23.00;;;;;8.03;83.28;101674.73;113028;242;39967;-53
2024/01/31 10:18:08;;;;;;;;;39.00;29.50;;;;;8.24;82.92;101675.54;112884;242;40658;-53
2024/01/31 10:20:52;;;;;;;;;39.00;27.50;;;;;8.40;82.27;101675.35;112955;239;160743;-54
2024/01/31 10:23:35;;;;;;;;;38.25;29.00;;;;;8.39;81.61;101672.56;112829;242;40690;-54
2024/01/31 10:26:15;;;;;;;;;40.50;31.00;;;;;8.27;80.69;101671.52;112897;239;160486;-58
2024/01/31 10:28:52;;;;;;;;;40.00;29.00;;;;;8.18;80.82;101670.61;112819;242;41003;-57
2024/01/31 10:31:32;;;;;;;;;36.00;27.00;;;;;8.08;80.69;101661.80;112674;239;160554;-56
2024/01/31 10:34:14;;;;;;;;;32.00;23.00;;;;;8.01;80.47;101657.16;112851;242;39382;-57
2024/01/31 10:36:51;;;;;;;;;29.67;24.00;;;;;7.98;80.45;101653.42;112718;239;160539;-55
2024/01/31 10:39:27;;;;;;;;;30.00;24.00;;;;;7.96;80.55;101654.35;112779;242;39499;-54
2024/01/31 10:42:14;;;;;;;;;36.25;26.50;;;;;7.95;80.59;101653.05;112861;243;39859;-56
2024/01/31 10:44:54;;;;;;;;;28.33;20.00;;;;;7.95;80.45;101651.77;112705;239;159946;-57
2024/01/31 10:47:34;;;;;;;;;31.00;22.50;;;;;7.93;80.45;101649.02;112894;243;38999;-58
2024/01/31 10:50:10;;;;;;;;;33.50;26.00;;;;;7.94;80.51;101645.89;112722;239;160459;-56
2024/01/31 10:52:47;;;;;;;;;35.50;26.75;;;;;7.94;80.33;101648.63;112784;243;39318;-57
2024/01/31 10:55:26;;;;;;;;;35.75;26.50;;;;;7.92;80.41;101648.10;112706;239;161420;-54
2024/01/31 10:58:05;;;;;;;;;29.75;21.00;;;;;7.75;80.66;101645.69;112828;242;40314;-53
2024/01/31 11:00:53;;;;;;;;;32.50;23.25;;;;;7.72;80.60;101637.05;112774;239;160535;-53
2024/01/31 11:03:32;;;;;;;;;28.75;20.50;;;;;7.71;80.68;101635.31;112776;242;39819;-56
2024/01/31 11:06:08;;;;;;;;;30.75;22.50;;;;;7.67;80.59;101633.73;112898;243;39349;-52
2024/01/31 11:08:44;;;;;;;;;38.00;30.00;;;;;7.68;80.96;101637.16;112658;239;161366;-52
2024/01/31 11:11:23;;;;;;;;;34.75;27.25;;;;;7.73;80.92;101635.48;112839;243;39664;-58
2024/01/31 11:14:14;;;;;;;;;28.50;23.00;;;;;7.67;81.03;101634.41;112692;239;160645;-57
2024/01/31 11:16:51;;;;;;;;;28.25;21.25;;;;;7.64;81.00;101635.58;112921;243;39621;-56
2024/01/31 11:19:30;;;;;;;;;22.50;17.75;;;;;7.62;81.06;101628.95;112694;239;160733;-55
2024/01/31 11:22:14;;;;;;;;;26.00;19.00;;;;;7.60;81.41;101627.78;112886;243;39215;-54
2024/01/31 11:24:54;;;;;;;;;28.50;22.00;;;;;7.59;81.37;101626.73;112740;239;160839;-53
2024/01/31 11:27:31;;;;;;;;;22.75;17.25;;;;;7.60;81.52;101626.82;112914;242;40086;-53
2024/01/31 11:30:11;;;;;;;;;27.50;21.25;;;;;7.62;81.55;101629.54;112895;243;39416;-54
2024/01/31 11:32:48;;;;;;;;;23.00;17.00;;;;;7.63;81.80;101624.58;112743;239;160844;-52
2024/01/31 11:35:28;;;;;;;;;26.00;19.00;;;;;7.66;81.67;101615.67;112890;242;39362;-56
2024/01/31 11:38:12;;;;;;;;;22.50;18.00;;;;;7.71;81.70;101612.67;112771;239;161461;-55
2024/01/31 11:40:51;;;;;;;;;33.00;25.00;;;;;7.77;81.64;101612.70;112816;242;39754;-53
2024/01/31 11:43:35;;;;;;;;;32.50;24.00;;;;;7.82;81.83;101611.73;112713;239;161215;-53
2024/01/31 11:46:21;;;;;;;;;30.00;23.33;;;;;7.88;81.74;101606.33;112850;242;39336;-55
2024/01/31 11:49:06;;;;;;;;;31.00;24.00;;;;;7.96;81.72;101605.02;112688;239;160617;-55
2024/01/31 11:51:49;;;;;;;;;30.00;23.00;;;;;8.02;81.89;101603.52;112852;242;39689;-52
2024/01/31 11:54:28;;;;;;;;;29.00;18.00;;;;;8.04;81.79;101603.39;112840;242;39835;-52
2024/01/31 11:57:07;;;;;;;;;30.50;23.50;;;;;8.10;81.76;101601.36;112588;242;39165;-56
2024/01/31 11:59:44;;;;;;;;;30.25;23.00;;;;;8.12;81.68;101601.02;112867;242;40815;-56
2024/01/31 12:02:27;;;;;;;;;28.67;21.00;;;;;8.14;81.61;101599.71;112755;239;160887;-53
2024/01/31 12:05:08;;;;;;;;;27.00;21.00;;;;;8.10;81.58;101605.27;112851;242;40112;-54
2024/01/31 12:07:55;;;;;;;;;25.33;20.67;;;;;8.09;81.26;101602.73;112724;239;160340;-53
2024/01/31 12:10:34;;;;;;;;;27.75;21.25;;;;;8.02;80.96;101597.25;112829;242;39564;-53
2024/01/31 12:13:13;;;;;;;;;28.75;22.25;;;;;7.96;81.09;101595.55;112747;239;160555;-54
2024/01/31 12:16:00;;;;;;;;;23.50;17.50;;;;;7.89;81.08;101588.63;112825;242;40424;-53
2024/01/31 12:18:39;;;;;;;;;23.50;18.00;;;;;7.86;80.95;101587.15;112705;239;162303;-53
2024/01/31 12:21:16;;;;;;;;;22.50;17.00;;;;;7.91;81.13;101591.36;112811;242;39480;-55